createdAt,value
2018-07-21T00:00:08.869Z,22.64
2018-07-21T00:02:37.517Z,22.54
2018-07-21T00:05:06.090Z,22.59
2018-07-21T00:07:34.761Z,22.58
2018-07-21T00:10:03.320Z,22.56
2018-07-21T00:12:31.906Z,22.49
2018-07-21T00:15:00.460Z,22.50
2018-07-21T00:17:30.294Z,22.52
2018-07-21T00:19:58.836Z,22.50
2018-07-21T00:22:27.327Z,22.45
2018-07-21T00:24:55.894Z,22.46
2018-07-21T00:27:24.926Z,22.50
2018-07-21T00:31:22.858Z,22.56
2018-07-21T00:33:51.462Z,22.54
2018-07-21T00:36:20.733Z,22.53
2018-07-21T00:38:49.381Z,22.52
2018-07-21T00:41:18.918Z,22.49
2018-07-21T00:43:48.296Z,22.49
2018-07-21T00:46:16.932Z,22.41
2018-07-21T00:48:45.857Z,22.30
2018-07-21T00:51:15.372Z,22.34
2018-07-21T00:53:44.061Z,22.35
2018-07-21T00:56:12.645Z,22.34
2018-07-21T00:58:41.248Z,22.35
2018-07-21T01:01:10.160Z,22.33
2018-07-21T01:03:38.885Z,22.34
2018-07-21T01:06:07.802Z,22.30
2018-07-21T01:08:38.100Z,22.27
2018-07-21T01:11:09.743Z,22.29
2018-07-21T01:13:38.310Z,22.28
2018-07-21T01:16:07.269Z,22.25
2018-07-21T01:18:36.160Z,22.19
2018-07-21T01:21:04.871Z,22.12
2018-07-21T01:23:33.463Z,22.06
2018-07-21T01:26:01.942Z,22.06
2018-07-21T01:28:31.368Z,22.04
2018-07-21T01:30:59.827Z,22.03
2018-07-21T01:33:28.414Z,22.00
2018-07-21T01:35:56.929Z,22.02
2018-07-21T01:38:25.409Z,22.04
2018-07-21T01:40:53.994Z,22.04
2018-07-21T01:43:22.617Z,22.03
2018-07-21T01:45:51.306Z,21.97
2018-07-21T01:48:19.762Z,21.89
2018-07-21T01:50:48.600Z,21.87
2018-07-21T01:53:17.105Z,21.85
2018-07-21T01:55:46.825Z,21.83
2018-07-21T01:58:15.440Z,21.74
2018-07-21T02:00:43.957Z,21.70
2018-07-21T02:03:12.538Z,21.70
2018-07-21T02:05:41.879Z,21.60
2018-07-21T02:08:11.118Z,21.50
2018-07-21T02:10:40.442Z,21.45
2018-07-21T02:13:09.022Z,21.38
2018-07-21T02:15:37.553Z,21.35
2018-07-21T02:18:06.098Z,21.27
2018-07-21T02:20:34.629Z,21.26
2018-07-21T02:23:03.980Z,21.23
2018-07-21T02:25:32.425Z,21.21
2018-07-21T02:28:01.093Z,21.19
2018-07-21T02:30:29.834Z,21.17
2018-07-21T02:32:58.496Z,21.19
2018-07-21T02:35:27.143Z,21.18
2018-07-21T02:37:55.678Z,21.16
2018-07-21T02:40:24.816Z,21.13
2018-07-21T02:42:54.679Z,21.09
2018-07-21T02:45:23.318Z,21.07
2018-07-21T02:47:51.861Z,21.02
2018-07-21T02:50:20.701Z,21.01
2018-07-21T02:52:50.976Z,20.97
2018-07-21T02:55:20.399Z,20.91
2018-07-21T02:57:48.970Z,20.92
2018-07-21T03:00:17.749Z,20.91
2018-07-21T03:02:46.375Z,20.86
2018-07-21T03:05:14.919Z,20.84
2018-07-21T03:07:43.500Z,20.85
2018-07-21T03:10:12.291Z,20.83
2018-07-21T03:12:41.825Z,20.81
2018-07-21T03:15:10.612Z,20.80
2018-07-21T03:17:39.309Z,20.74
2018-07-21T03:20:07.878Z,20.71
2018-07-21T03:22:37.085Z,20.67
2018-07-21T03:25:06.018Z,20.64
2018-07-21T03:27:34.629Z,20.65
2018-07-21T03:30:04.934Z,20.65
2018-07-21T03:32:33.755Z,20.67
2018-07-21T03:35:02.399Z,20.67
2018-07-21T03:37:32.902Z,20.61
2018-07-21T03:40:01.678Z,20.61
2018-07-21T03:42:30.676Z,20.61
2018-07-21T03:44:59.442Z,20.58
2018-07-21T03:47:28.536Z,20.56
2018-07-21T03:49:57.121Z,20.55
2018-07-21T03:52:25.701Z,20.56
2018-07-21T03:54:54.809Z,20.57
2018-07-21T03:57:23.392Z,20.57
2018-07-21T03:59:51.959Z,20.57
2018-07-21T04:02:21.154Z,20.60
2018-07-21T04:04:51.509Z,20.58
2018-07-21T04:07:21.089Z,20.63
2018-07-21T04:09:49.598Z,20.65
2018-07-21T04:12:18.846Z,20.61
2018-07-21T04:14:47.380Z,20.61
2018-07-21T04:17:24.457Z,20.59
2018-07-21T04:19:53.881Z,20.60
2018-07-21T04:22:24.267Z,20.61
2018-07-21T04:24:54.031Z,20.58
2018-07-21T04:27:23.621Z,20.58
2018-07-21T04:29:53.803Z,20.56
2018-07-21T04:32:23.178Z,20.55
2018-07-21T04:34:51.862Z,20.62
2018-07-21T04:37:20.551Z,20.65
2018-07-21T04:39:49.191Z,20.67
2018-07-21T04:42:18.646Z,20.63
2018-07-21T04:44:47.103Z,20.66
2018-07-21T04:47:16.305Z,20.67
2018-07-21T04:49:44.824Z,20.71
2018-07-21T04:52:13.339Z,20.71
2018-07-21T04:54:42.331Z,20.74
2018-07-21T04:57:10.897Z,20.75
2018-07-21T04:59:39.554Z,20.74
2018-07-21T05:02:08.489Z,20.75
2018-07-21T05:04:37.024Z,20.80
2018-07-21T05:07:05.470Z,20.85
2018-07-21T05:09:33.985Z,20.90
2018-07-21T05:12:03.624Z,20.96
2018-07-21T05:14:32.308Z,21.01
2018-07-21T05:17:01.418Z,21.04
2018-07-21T05:19:30.084Z,21.04
2018-07-21T05:21:58.542Z,21.14
2018-07-21T05:24:28.369Z,21.16
2018-07-21T05:26:56.886Z,21.19
2018-07-21T05:29:25.628Z,21.27
2018-07-21T05:31:54.469Z,21.25
2018-07-21T05:34:24.135Z,21.32
2018-07-21T05:36:54.300Z,21.39
2018-07-21T05:39:23.555Z,21.48
2018-07-21T05:41:52.025Z,21.52
2018-07-21T05:44:21.357Z,21.64
2018-07-21T05:46:51.597Z,21.71
2018-07-21T05:49:22.414Z,21.78
2018-07-21T05:51:51.011Z,21.80
2018-07-21T05:54:21.111Z,21.84
2018-07-21T05:56:50.760Z,21.92
2018-07-21T05:59:21.519Z,21.99
2018-07-21T06:01:50.995Z,22.07
2018-07-21T06:04:19.754Z,22.16
2018-07-21T06:06:48.248Z,22.21
2018-07-21T06:09:16.872Z,22.21
2018-07-21T06:11:45.355Z,22.15
2018-07-21T06:14:14.512Z,22.03
2018-07-21T06:16:44.256Z,22.07
2018-07-21T06:19:12.912Z,22.14
2018-07-21T06:21:41.994Z,22.20
2018-07-21T06:24:10.693Z,22.20
2018-07-21T06:26:39.998Z,22.25
2018-07-21T06:29:10.043Z,22.21
2018-07-21T06:31:38.558Z,22.21
2018-07-21T06:34:07.575Z,22.28
2018-07-21T06:36:37.748Z,22.39
2018-07-21T06:39:09.597Z,22.43
2018-07-21T06:41:40.001Z,22.45
2018-07-21T06:44:10.568Z,22.57
2018-07-21T06:46:39.106Z,22.56
2018-07-21T06:49:07.643Z,22.66
2018-07-21T06:51:38.143Z,22.74
2018-07-21T06:54:06.810Z,22.74
2018-07-21T06:56:35.327Z,22.64
2018-07-21T06:59:04.205Z,22.67
2018-07-21T07:01:33.776Z,22.65
2018-07-21T07:04:04.670Z,22.70
2018-07-21T07:06:33.173Z,22.76
2018-07-21T07:09:03.757Z,22.83
2018-07-21T07:11:33.194Z,22.87
2018-07-21T07:14:02.765Z,22.92
2018-07-21T07:16:33.137Z,22.97
2018-07-21T07:19:01.629Z,23.01
2018-07-21T07:21:30.150Z,23.04
2018-07-21T07:23:59.594Z,23.11
2018-07-21T07:26:28.779Z,23.15
2018-07-21T07:28:57.345Z,23.19
2018-07-21T07:31:26.969Z,23.25
2018-07-21T07:33:55.661Z,23.31
2018-07-21T07:36:24.527Z,23.38
2018-07-21T07:38:53.239Z,23.42
2018-07-21T07:41:21.806Z,23.46
2018-07-21T07:43:50.323Z,23.50
2018-07-21T07:46:18.871Z,23.55
2018-07-21T07:48:47.372Z,23.53
2018-07-21T07:51:15.917Z,23.56
2018-07-21T07:53:45.053Z,23.56
2018-07-21T07:56:14.218Z,23.62
2018-07-21T07:58:42.723Z,23.62
2018-07-21T08:01:12.962Z,23.66
2018-07-21T08:03:41.598Z,23.74
2018-07-21T08:06:10.299Z,23.72
2018-07-21T08:08:38.808Z,23.77
2018-07-21T08:11:09.124Z,23.80
2018-07-21T08:13:37.725Z,23.85
2018-07-21T08:16:06.651Z,23.95
2018-07-21T08:18:35.809Z,24.05
2018-07-21T08:21:04.549Z,24.10
2018-07-21T08:23:33.114Z,24.19
2018-07-21T08:26:02.084Z,24.23
2018-07-21T08:28:31.103Z,24.24
2018-07-21T08:31:00.475Z,24.31
2018-07-21T08:33:32.153Z,24.34
2018-07-21T08:36:01.488Z,24.34
2018-07-21T08:38:30.527Z,24.34
2018-07-21T08:40:58.990Z,24.41
2018-07-21T08:43:27.588Z,24.48
2018-07-21T08:45:56.733Z,24.62
2018-07-21T08:48:25.632Z,24.79
2018-07-21T08:50:54.700Z,24.90
2018-07-21T08:53:23.230Z,25.07
2018-07-21T08:55:52.025Z,25.16
2018-07-21T08:58:21.819Z,25.26
2018-07-21T09:00:50.833Z,25.29
2018-07-21T09:03:19.345Z,25.37
2018-07-21T09:05:49.020Z,25.45
2018-07-21T09:08:18.079Z,25.55
2018-07-21T09:10:46.617Z,25.60
2018-07-21T09:13:15.505Z,25.68
2018-07-21T09:15:44.077Z,25.69
2018-07-21T09:18:12.530Z,25.80
2018-07-21T09:20:41.027Z,25.85
2018-07-21T09:23:09.569Z,26.00
2018-07-21T09:25:38.082Z,26.14
2018-07-21T09:28:07.417Z,26.27
2018-07-21T09:30:36.580Z,26.37
2018-07-21T09:33:05.129Z,26.47
2018-07-21T09:35:34.299Z,26.58
2018-07-21T09:38:04.011Z,26.66
2018-07-21T09:40:32.588Z,26.68
2018-07-21T09:43:02.127Z,26.71
2018-07-21T09:45:30.604Z,26.77
2018-07-21T09:47:59.173Z,26.77
2018-07-21T09:50:27.812Z,26.82
2018-07-21T09:52:57.306Z,26.88
2018-07-21T09:55:26.473Z,26.95
2018-07-21T09:57:55.098Z,27.05
2018-07-21T10:00:30.292Z,27.09
2018-07-21T10:02:58.943Z,27.14
2018-07-21T10:05:28.023Z,27.25
2018-07-21T10:07:57.397Z,27.33
2018-07-21T10:10:25.906Z,27.38
2018-07-21T10:12:54.454Z,27.38
2018-07-21T10:15:23.140Z,27.46
2018-07-21T10:17:51.724Z,27.53
2018-07-21T10:20:21.784Z,27.63
2018-07-21T10:22:52.236Z,27.69
2018-07-21T10:25:26.359Z,27.75
2018-07-21T10:28:01.075Z,27.85
2018-07-21T10:30:29.677Z,27.99
2018-07-21T10:32:58.914Z,28.16
2018-07-21T10:35:28.365Z,28.43
2018-07-21T10:37:56.899Z,28.68
2018-07-21T10:40:26.586Z,28.90
2018-07-21T10:42:56.525Z,29.14
2018-07-21T10:45:25.124Z,29.25
2018-07-21T10:47:54.487Z,29.28
2018-07-21T10:50:23.010Z,29.26
2018-07-21T10:52:51.590Z,29.22
2018-07-21T10:55:21.352Z,29.11
2018-07-21T10:57:50.049Z,29.01
2018-07-21T11:00:18.549Z,28.95
2018-07-21T11:02:47.030Z,28.90
2018-07-21T11:05:15.994Z,28.88
2018-07-21T11:07:44.559Z,28.86
2018-07-21T11:10:13.012Z,28.76
2018-07-21T11:12:41.611Z,28.75
2018-07-21T11:15:10.124Z,28.79
2018-07-21T11:17:39.058Z,28.88
2018-07-21T11:20:08.006Z,28.88
2018-07-21T11:22:37.112Z,28.87
2018-07-21T11:25:06.563Z,28.87
2018-07-21T11:27:35.564Z,28.88
2018-07-21T11:30:08.479Z,28.92
2018-07-21T11:32:37.142Z,28.96
2018-07-21T11:35:05.820Z,29.04
2018-07-21T11:37:34.369Z,29.10
2018-07-21T11:40:03.153Z,29.18
2018-07-21T11:42:31.661Z,29.27
2018-07-21T11:45:00.197Z,29.35
2018-07-21T11:47:29.384Z,29.39
2018-07-21T11:49:58.000Z,29.37
2018-07-21T11:52:27.611Z,29.34
2018-07-21T11:54:56.279Z,29.33
2018-07-21T11:57:24.825Z,29.40
2018-07-21T11:59:53.542Z,29.45
2018-07-21T12:02:23.030Z,29.46
2018-07-21T12:04:51.594Z,29.45
2018-07-21T12:07:20.137Z,29.41
2018-07-21T12:09:48.767Z,29.45
2018-07-21T12:12:17.223Z,29.53
2018-07-21T12:14:46.907Z,29.56
2018-07-21T12:17:15.569Z,29.51
2018-07-21T12:19:44.034Z,29.45
2018-07-21T12:22:15.546Z,29.39
2018-07-21T12:24:45.084Z,29.33
2018-07-21T12:27:13.674Z,29.26
2018-07-21T12:29:42.621Z,29.23
2018-07-21T12:32:11.456Z,29.22
2018-07-21T12:34:40.069Z,29.15
2018-07-21T12:37:10.366Z,29.09
2018-07-21T12:39:38.954Z,29.00
2018-07-21T12:42:07.679Z,28.93
2018-07-21T12:44:36.270Z,28.89
2018-07-21T12:47:05.672Z,28.84
2018-07-21T12:49:34.813Z,28.84
2018-07-21T12:52:04.930Z,28.85
2018-07-21T12:54:33.426Z,28.90
2018-07-21T12:57:02.460Z,28.93
2018-07-21T12:59:31.176Z,28.98
2018-07-21T13:02:00.730Z,29.00
2018-07-21T13:04:29.315Z,28.96
2018-07-21T13:06:58.146Z,28.97
2018-07-21T13:09:26.688Z,28.96
2018-07-21T13:11:56.048Z,29.01
2018-07-21T13:14:24.590Z,29.03
2018-07-21T13:16:53.189Z,29.07
2018-07-21T13:19:21.728Z,29.06
2018-07-21T13:21:50.267Z,29.06
2018-07-21T13:24:18.807Z,29.05
2018-07-21T13:26:47.838Z,29.05
2018-07-21T13:29:16.371Z,29.05
2018-07-21T13:31:45.632Z,29.03
2018-07-21T13:34:14.966Z,29.00
2018-07-21T13:36:43.462Z,28.98
2018-07-21T13:39:13.337Z,28.95
2018-07-21T13:41:41.794Z,28.92
2018-07-21T13:44:10.377Z,28.91
2018-07-21T13:46:39.866Z,28.90
2018-07-21T13:49:08.501Z,28.91
2018-07-21T13:51:38.123Z,28.95
2018-07-21T13:54:06.637Z,28.99
2018-07-21T13:56:35.269Z,29.05
2018-07-21T13:59:03.751Z,29.09
2018-07-21T14:01:33.192Z,29.13
2018-07-21T14:04:01.817Z,29.15
2018-07-21T14:06:30.298Z,29.19
2018-07-21T14:08:58.983Z,29.25
2018-07-21T14:11:28.558Z,29.41
2018-07-21T14:13:57.274Z,29.66
2018-07-21T14:16:25.786Z,29.87
2018-07-21T14:18:54.811Z,30.03
2018-07-21T14:21:23.416Z,30.10
2018-07-21T14:23:51.998Z,30.29
2018-07-21T14:26:20.574Z,30.51
2018-07-21T14:28:49.076Z,30.60
2018-07-21T14:31:17.719Z,30.47
2018-07-21T14:33:46.321Z,30.40
2018-07-21T14:36:14.903Z,30.27
2018-07-21T14:38:43.364Z,30.13
2018-07-21T14:41:12.568Z,30.00
2018-07-21T14:43:41.803Z,29.95
2018-07-21T14:46:10.442Z,29.89
2018-07-21T14:48:39.475Z,29.90
2018-07-21T14:51:08.837Z,29.94
2018-07-21T14:53:38.773Z,29.97
2018-07-21T14:56:08.665Z,29.93
2018-07-21T14:58:38.991Z,29.92
2018-07-21T15:01:07.708Z,29.94
2018-07-21T15:03:37.255Z,29.90
2018-07-21T15:06:07.205Z,29.91
2018-07-21T15:08:35.676Z,29.79
2018-07-21T15:11:04.212Z,29.70
2018-07-21T15:13:33.562Z,29.64
2018-07-21T15:16:02.018Z,29.58
2018-07-21T15:18:30.630Z,29.48
2018-07-21T15:21:00.175Z,29.40
2018-07-21T15:23:28.579Z,29.36
2018-07-21T15:25:57.135Z,29.28
2018-07-21T15:28:26.459Z,29.29
2018-07-21T15:30:55.146Z,29.30
2018-07-21T15:33:24.929Z,29.28
2018-07-21T15:35:55.010Z,29.31
2018-07-21T15:38:23.887Z,29.27
2018-07-21T15:40:52.607Z,29.20
2018-07-21T15:43:21.399Z,29.13
2018-07-21T15:45:50.094Z,29.03
2018-07-21T15:48:18.561Z,28.95
2018-07-21T15:50:47.172Z,28.90
2018-07-21T15:53:16.011Z,28.85
2018-07-21T15:55:45.176Z,28.78
2018-07-21T15:58:13.806Z,28.71
2018-07-21T16:00:42.412Z,28.68
2018-07-21T16:03:10.888Z,28.64
2018-07-21T16:05:39.849Z,28.62
2018-07-21T16:08:08.557Z,28.60
2018-07-21T16:10:37.140Z,28.59
2018-07-21T16:13:06.117Z,28.56
2018-07-21T16:15:34.667Z,28.55
2018-07-21T16:18:03.362Z,28.51
2018-07-21T16:20:31.898Z,28.49
2018-07-21T16:23:00.583Z,28.46
2018-07-21T16:25:29.185Z,28.46
2018-07-21T16:27:58.040Z,28.47
2018-07-21T16:30:27.103Z,28.50
2018-07-21T16:32:55.731Z,28.53
2018-07-21T16:35:24.271Z,28.54
2018-07-21T16:37:52.880Z,28.60
2018-07-21T16:40:21.467Z,28.69
2018-07-21T16:42:50.121Z,28.87
2018-07-21T16:45:19.847Z,29.08
2018-07-21T16:47:48.442Z,29.41
2018-07-21T16:50:16.953Z,29.60
2018-07-21T16:52:45.575Z,29.57
2018-07-21T16:55:14.674Z,29.54
2018-07-21T16:57:43.848Z,29.51
2018-07-21T17:00:12.534Z,29.50
2018-07-21T17:02:41.984Z,29.47
2018-07-21T17:05:10.769Z,29.50
2018-07-21T17:07:39.465Z,29.48
2018-07-21T17:10:07.999Z,29.41
2018-07-21T17:12:37.516Z,29.32
2018-07-21T17:15:06.518Z,29.30
2018-07-21T17:17:35.041Z,29.27
2018-07-21T17:20:03.715Z,29.18
2018-07-21T17:22:32.908Z,29.12
2018-07-21T17:25:01.916Z,29.06
2018-07-21T17:27:30.732Z,29.03
2018-07-21T17:30:01.057Z,28.99
2018-07-21T17:32:29.780Z,28.96
2018-07-21T17:34:58.787Z,28.91
2018-07-21T17:37:27.329Z,28.83
2018-07-21T17:39:55.951Z,28.77
2018-07-21T17:42:24.425Z,28.71
2018-07-21T17:44:54.842Z,28.66
2018-07-21T17:47:23.364Z,28.59
2018-07-21T17:49:51.918Z,28.55
2018-07-21T17:52:20.823Z,28.49
2018-07-21T17:54:49.299Z,28.43
2018-07-21T17:57:18.482Z,28.36
2018-07-21T17:59:47.603Z,28.32
2018-07-21T18:02:16.310Z,28.24
2018-07-21T18:04:45.014Z,28.19
2018-07-21T18:07:15.127Z,28.15
2018-07-21T18:09:44.676Z,28.11
2018-07-21T18:12:14.058Z,28.07
2018-07-21T18:14:42.517Z,28.04
2018-07-21T18:17:10.998Z,28.00
2018-07-21T18:19:39.721Z,27.97
2018-07-21T18:22:09.224Z,27.93
2018-07-21T18:24:38.178Z,27.90
2018-07-21T18:27:07.046Z,27.85
2018-07-21T18:29:35.628Z,27.83
2018-07-21T18:32:04.304Z,27.82
2018-07-21T18:34:33.778Z,27.78
2018-07-21T18:37:03.524Z,27.74
2018-07-21T18:39:32.028Z,27.74
2018-07-21T18:42:00.576Z,27.68
2018-07-21T18:44:29.037Z,27.63
2018-07-21T18:46:58.174Z,27.62
2018-07-21T18:49:26.633Z,27.59
2018-07-21T18:51:55.117Z,27.57
2018-07-21T18:54:24.455Z,27.55
2018-07-21T18:56:53.131Z,27.54
2018-07-21T18:59:21.831Z,27.53
2018-07-21T19:01:52.013Z,27.49
2018-07-21T19:04:21.240Z,27.48
2018-07-21T19:06:49.899Z,27.45
2018-07-21T19:09:18.305Z,27.42
2018-07-21T19:11:50.972Z,27.35
2018-07-21T19:14:20.516Z,27.34
2018-07-21T19:16:49.084Z,27.29
2018-07-21T19:19:18.970Z,27.22
2018-07-21T19:21:47.646Z,27.19
2018-07-21T19:24:16.229Z,27.14
2018-07-21T19:26:49.879Z,27.06
2018-07-21T19:29:19.191Z,27.00
2018-07-21T19:31:53.117Z,26.97
2018-07-21T19:34:21.645Z,26.90
2018-07-21T19:36:50.131Z,26.86
2018-07-21T19:39:18.688Z,26.85
2018-07-21T19:41:52.805Z,26.82
2018-07-21T19:44:21.312Z,26.78
2018-07-21T19:46:50.326Z,26.75
2018-07-21T19:49:19.498Z,26.73
2018-07-21T19:51:48.075Z,26.69
2018-07-21T19:54:16.774Z,26.67
2018-07-21T19:56:46.485Z,26.63
2018-07-21T19:59:15.245Z,26.60
2018-07-21T20:01:43.860Z,26.58
2018-07-21T20:04:14.576Z,26.49
2018-07-21T20:06:44.072Z,26.50
2018-07-21T20:09:12.960Z,26.46
2018-07-21T20:11:42.961Z,26.41
2018-07-21T20:14:12.675Z,26.37
2018-07-21T20:16:41.775Z,26.31
2018-07-21T20:19:10.414Z,26.24
2018-07-21T20:21:39.632Z,26.14
2018-07-21T20:24:08.500Z,26.08
2018-07-21T20:26:37.020Z,26.00
2018-07-21T20:29:05.460Z,25.92
2018-07-21T20:31:34.122Z,25.86
2018-07-21T20:34:02.727Z,25.81
2018-07-21T20:36:31.209Z,25.77
2018-07-21T20:39:00.072Z,25.71
2018-07-21T20:41:28.727Z,25.67
2018-07-21T20:43:57.328Z,25.67
2018-07-21T20:46:25.750Z,25.69
2018-07-21T20:48:55.203Z,25.69
2018-07-21T20:51:24.466Z,25.66
2018-07-21T20:53:52.998Z,25.62
2018-07-21T20:56:23.138Z,25.59
2018-07-21T20:58:51.766Z,25.57
2018-07-21T21:01:20.334Z,25.55
2018-07-21T21:03:50.245Z,25.47
2018-07-21T21:06:18.781Z,25.41
2018-07-21T21:08:47.451Z,25.45
2018-07-21T21:11:16.127Z,25.43
2018-07-21T21:13:47.957Z,25.39
2018-07-21T21:16:16.587Z,25.37
2018-07-21T21:18:45.509Z,25.33
2018-07-21T21:21:13.981Z,25.30
2018-07-21T21:23:45.566Z,25.24
2018-07-21T21:26:14.185Z,25.25
2018-07-21T21:28:43.668Z,25.21
2018-07-21T21:31:12.690Z,25.16
2018-07-21T21:33:41.338Z,25.16
2018-07-21T21:36:09.978Z,25.17
2018-07-21T21:38:39.114Z,25.17
2018-07-21T21:41:09.088Z,25.13
2018-07-21T21:43:37.589Z,25.14
2018-07-21T21:46:06.590Z,25.09
2018-07-21T21:48:35.107Z,25.07
2018-07-21T21:51:03.593Z,25.04
2018-07-21T21:53:32.210Z,24.95
2018-07-21T21:56:00.658Z,24.89
2018-07-21T21:58:29.199Z,24.83
2018-07-21T22:01:13.038Z,24.82
2018-07-21T22:03:41.702Z,24.79
2018-07-21T22:06:10.293Z,24.82
2018-07-21T22:08:39.848Z,24.80
2018-07-21T22:11:09.811Z,24.75
2018-07-21T22:13:38.500Z,24.73
2018-07-21T22:16:07.455Z,24.70
2018-07-21T22:18:35.977Z,24.67
2018-07-21T22:21:05.028Z,24.64
2018-07-21T22:23:34.371Z,24.66
2018-07-21T22:26:05.095Z,24.68
2018-07-21T22:28:33.751Z,24.65
2018-07-21T22:31:02.456Z,24.60
2018-07-21T22:33:31.368Z,24.59
2018-07-21T22:35:59.886Z,24.55
2018-07-21T22:38:29.210Z,24.52
2018-07-21T22:40:58.217Z,24.43
2018-07-21T22:43:26.755Z,24.36
2018-07-21T22:45:55.257Z,24.28
2018-07-21T22:48:24.310Z,24.24
2018-07-21T22:50:52.799Z,24.14
2018-07-21T22:53:21.305Z,24.10
2018-07-21T22:55:49.926Z,24.09
2018-07-21T22:58:18.417Z,24.08
2018-07-21T23:00:47.061Z,23.95
2018-07-21T23:03:15.784Z,23.92
2018-07-21T23:05:45.117Z,23.86
2018-07-21T23:08:14.458Z,23.82
2018-07-21T23:10:43.267Z,23.80
2018-07-21T23:13:13.346Z,23.76
2018-07-21T23:15:43.794Z,23.65
2018-07-21T23:18:13.027Z,23.58
2018-07-21T23:20:41.611Z,23.54
2018-07-21T23:23:11.769Z,23.50
2018-07-21T23:25:40.869Z,23.49
2018-07-21T23:28:09.493Z,23.50
2018-07-21T23:30:38.390Z,23.49
2018-07-21T23:33:08.163Z,23.44
2018-07-21T23:35:36.674Z,23.43
2018-07-21T23:38:05.267Z,23.32
2018-07-21T23:40:33.859Z,23.33
2018-07-21T23:43:02.321Z,23.32
2018-07-21T23:45:30.777Z,23.32
2018-07-21T23:47:59.505Z,23.28
2018-07-21T23:50:28.434Z,23.17
2018-07-21T23:52:57.104Z,23.13
2018-07-21T23:55:25.759Z,23.11
2018-07-21T23:57:55.515Z,23.11
